sensor_id;sensor_type;location;lat;lon;timestamp;pressure;altitude;pressure_sealevel;temperature;humidity
55311;BME280;41173;52.634;-8.666;2024-01-16T16:44:34;99845.75;;;1.43;100.00
55311;BME280;41173;52.634;-8.666;2024-01-16T16:46:59;99832.63;;;1.64;100.00
55311;BME280;41173;52.634;-8.666;2024-01-16T16:49:25;99841.16;;;1.62;100.00
55311;BME280;41173;52.634;-8.666;2024-01-16T16:51:50;99836.84;;;1.62;100.00
55311;BME280;41173;52.634;-8.666;2024-01-16T16:54:16;99836.97;;;1.65;100.00
55311;BME280;41173;52.634;-8.666;2024-01-16T16:56:42;99832.84;;;1.72;100.00
55311;BME280;41173;52.634;-8.666;2024-01-16T16:59:09;99819.84;;;1.71;100.00
55311;BME280;41173;52.634;-8.666;2024-01-16T17:01:35;99827.50;;;1.67;100.00
55311;BME280;41173;52.634;-8.666;2024-01-16T17:04:03;99823.25;;;1.69;100.00
55311;BME280;41173;52.634;-8.666;2024-01-16T17:06:29;99832.09;;;1.76;100.00
55311;BME280;41173;52.634;-8.666;2024-01-16T17:08:54;99825.56;;;1.87;100.00
55311;BME280;41173;52.634;-8.666;2024-01-16T17:11:20;99826.25;;;1.82;100.00
55311;BME280;41173;52.634;-8.666;2024-01-16T17:13:45;99826.16;;;1.79;100.00
55311;BME280;41173;52.634;-8.666;2024-01-16T17:16:12;99823.59;;;1.80;100.00
55311;BME280;41173;52.634;-8.666;2024-01-16T17:18:37;99815.88;;;1.83;100.00
55311;BME280;41173;52.634;-8.666;2024-01-16T17:21:05;99808.25;;;1.88;100.00
55311;BME280;41173;52.634;-8.666;2024-01-16T17:23:32;99809.22;;;1.92;100.00
55311;BME280;41173;52.634;-8.666;2024-01-16T17:25:58;99798.91;;;1.93;100.00
55311;BME280;41173;52.634;-8.666;2024-01-16T17:28:24;99795.38;;;1.91;100.00
55311;BME280;41173;52.634;-8.666;2024-01-16T17:30:53;99791.28;;;1.98;100.00
55311;BME280;41173;52.634;-8.666;2024-01-16T17:33:18;99789.22;;;1.87;100.00
55311;BME280;41173;52.634;-8.666;2024-01-16T17:35:46;99797.66;;;1.80;100.00
55311;BME280;41173;52.634;-8.666;2024-01-16T17:38:11;99791.78;;;1.86;100.00
55311;BME280;41173;52.634;-8.666;2024-01-16T17:40:38;99790.50;;;1.72;100.00
55311;BME280;41173;52.634;-8.666;2024-01-16T17:43:04;99791.41;;;1.74;100.00
55311;BME280;41173;52.634;-8.666;2024-01-16T17:45:30;99793.34;;;1.81;100.00
55311;BME280;41173;52.634;-8.666;2024-01-16T17:47:55;99790.09;;;1.88;100.00
55311;BME280;41173;52.634;-8.666;2024-01-16T17:50:21;99786.50;;;1.83;100.00
55311;BME280;41173;52.634;-8.666;2024-01-16T17:52:49;99779.41;;;1.77;100.00
55311;BME280;41173;52.634;-8.666;2024-01-16T17:55:16;99780.06;;;1.70;100.00
55311;BME280;41173;52.634;-8.666;2024-01-16T17:57:41;99775.47;;;1.61;100.00
55311;BME280;41173;52.634;-8.666;2024-01-16T18:00:08;99771.97;;;1.59;100.00
55311;BME280;41173;52.634;-8.666;2024-01-16T18:02:35;99762.50;;;1.61;100.00
55311;BME280;41173;52.634;-8.666;2024-01-16T18:05:00;99762.19;;;1.52;100.00
55311;BME280;41173;52.634;-8.666;2024-01-16T18:07:27;99758.88;;;1.56;100.00
55311;BME280;41173;52.634;-8.666;2024-01-16T18:09:53;99759.59;;;1.52;100.00
55311;BME280;41173;52.634;-8.666;2024-01-16T18:12:19;99757.06;;;1.54;100.00
55311;BME280;41173;52.634;-8.666;2024-01-16T18:14:46;99762.47;;;1.60;100.00
55311;BME280;41173;52.634;-8.666;2024-01-16T18:17:11;99769.25;;;1.56;100.00
55311;BME280;41173;52.634;-8.666;2024-01-16T18:19:37;99764.94;;;1.57;100.00
55311;BME280;41173;52.634;-8.666;2024-01-16T18:22:03;99770.78;;;1.49;100.00
55311;BME280;41173;52.634;-8.666;2024-01-16T18:24:31;99765.69;;;1.53;100.00
55311;BME280;41173;52.634;-8.666;2024-01-16T18:26:57;99771.59;;;1.48;100.00
55311;BME280;41173;52.634;-8.666;2024-01-16T18:29:22;99764.66;;;1.47;100.00
55311;BME280;41173;52.634;-8.666;2024-01-16T18:31:48;99754.94;;;1.40;100.00
55311;BME280;41173;52.634;-8.666;2024-01-16T18:34:14;99745.59;;;1.45;100.00
55311;BME280;41173;52.634;-8.666;2024-01-16T18:36:54;99749.31;;;1.26;100.00
55311;BME280;41173;52.634;-8.666;2024-01-16T18:39:20;99753.06;;;1.36;100.00
55311;BME280;41173;52.634;-8.666;2024-01-16T18:41:50;99746.91;;;1.33;100.00
55311;BME280;41173;52.634;-8.666;2024-01-16T18:44:17;99739.72;;;1.24;100.00
55311;BME280;41173;52.634;-8.666;2024-01-16T18:46:43;99744.22;;;1.29;100.00
55311;BME280;41173;52.634;-8.666;2024-01-16T18:49:09;99729.41;;;1.25;100.00
55311;BME280;41173;52.634;-8.666;2024-01-16T18:51:34;99735.03;;;1.12;100.00
55311;BME280;41173;52.634;-8.666;2024-01-16T18:54:02;99727.34;;;1.15;100.00
55311;BME280;41173;52.634;-8.666;2024-01-16T18:56:28;99725.50;;;1.11;100.00
55311;BME280;41173;52.634;-8.666;2024-01-16T18:58:53;99728.38;;;1.20;100.00
55311;BME280;41173;52.634;-8.666;2024-01-16T19:01:20;99727.47;;;1.18;100.00
55311;BME280;41173;52.634;-8.666;2024-01-16T19:03:47;99717.63;;;1.08;100.00
55311;BME280;41173;52.634;-8.666;2024-01-16T19:06:13;99717.00;;;1.15;100.00
55311;BME280;41173;52.634;-8.666;2024-01-16T19:08:40;99717.78;;;1.12;100.00
55311;BME280;41173;52.634;-8.666;2024-01-16T19:11:08;99715.28;;;0.88;100.00
55311;BME280;41173;52.634;-8.666;2024-01-16T19:13:37;99710.88;;;0.86;100.00
55311;BME280;41173;52.634;-8.666;2024-01-16T19:16:04;99715.88;;;0.80;100.00
55311;BME280;41173;52.634;-8.666;2024-01-16T19:18:35;99703.09;;;0.86;100.00
55311;BME280;41173;52.634;-8.666;2024-01-16T19:21:04;99700.50;;;0.86;100.00
55311;BME280;41173;52.634;-8.666;2024-01-16T19:23:31;99701.50;;;0.89;100.00
55311;BME280;41173;52.634;-8.666;2024-01-16T19:25:57;99688.53;;;0.89;100.00
55311;BME280;41173;52.634;-8.666;2024-01-16T19:28:23;99687.31;;;0.78;100.00
55311;BME280;41173;52.634;-8.666;2024-01-16T19:30:48;99689.91;;;0.78;100.00
55311;BME280;41173;52.634;-8.666;2024-01-16T19:33:16;99686.94;;;0.67;100.00
55311;BME280;41173;52.634;-8.666;2024-01-16T19:35:41;99688.97;;;0.76;100.00
55311;BME280;41173;52.634;-8.666;2024-01-16T19:38:07;99681.81;;;0.69;100.00
55311;BME280;41173;52.634;-8.666;2024-01-16T19:40:32;99686.34;;;0.74;100.00
55311;BME280;41173;52.634;-8.666;2024-01-16T19:42:58;99681.19;;;0.76;100.00
55311;BME280;41173;52.634;-8.666;2024-01-16T19:45:32;99676.81;;;0.73;100.00
55311;BME280;41173;52.634;-8.666;2024-01-16T19:47:58;99669.66;;;0.66;100.00
55311;BME280;41173;52.634;-8.666;2024-01-16T19:50:24;99671.63;;;0.73;100.00
55311;BME280;41173;52.634;-8.666;2024-01-16T19:52:51;99667.22;;;0.71;100.00
55311;BME280;41173;52.634;-8.666;2024-01-16T19:55:20;99669.78;;;0.69;100.00
55311;BME280;41173;52.634;-8.666;2024-01-16T19:57:53;99664.59;;;0.69;100.00
55311;BME280;41173;52.634;-8.666;2024-01-16T20:00:19;99670.53;;;0.67;100.00
55311;BME280;41173;52.634;-8.666;2024-01-16T20:02:45;99669.66;;;0.66;100.00
55311;BME280;41173;52.634;-8.666;2024-01-16T20:05:11;99665.38;;;0.67;100.00
55311;BME280;41173;52.634;-8.666;2024-01-16T20:07:49;99666.69;;;0.54;100.00
55311;BME280;41173;52.634;-8.666;2024-01-16T20:10:15;99661.84;;;0.65;100.00
55311;BME280;41173;52.634;-8.666;2024-01-16T20:12:45;99658.34;;;0.63;100.00
55311;BME280;41173;52.634;-8.666;2024-01-16T20:15:15;99651.50;;;0.65;100.00
55311;BME280;41173;52.634;-8.666;2024-01-16T20:17:44;99647.06;;;0.62;100.00
55311;BME280;41173;52.634;-8.666;2024-01-16T20:20:11;99653.06;;;0.60;100.00
55311;BME280;41173;52.634;-8.666;2024-01-16T20:22:38;99644.25;;;0.54;100.00
55311;BME280;41173;52.634;-8.666;2024-01-16T20:25:04;99639.81;;;0.50;100.00
55311;BME280;41173;52.634;-8.666;2024-01-16T20:27:30;99646.50;;;0.44;100.00
55311;BME280;41173;52.634;-8.666;2024-01-16T20:29:55;99643.28;;;0.51;100.00
55311;BME280;41173;52.634;-8.666;2024-01-16T20:32:21;99635.22;;;0.43;100.00
55311;BME280;41173;52.634;-8.666;2024-01-16T20:34:47;99633.28;;;0.36;100.00
55311;BME280;41173;52.634;-8.666;2024-01-16T20:37:12;99626.88;;;0.25;100.00
55311;BME280;41173;52.634;-8.666;2024-01-16T20:39:41;99625.16;;;0.25;100.00
55311;BME280;41173;52.634;-8.666;2024-01-16T20:42:07;99618.78;;;0.15;100.00
55311;BME280;41173;52.634;-8.666;2024-01-16T20:44:34;99615.69;;;0.26;100.00
55311;BME280;41173;52.634;-8.666;2024-01-16T20:47:00;99606.19;;;0.25;100.00
55311;BME280;41173;52.634;-8.666;2024-01-16T20:49:25;99606.38;;;0.31;100.00
55311;BME280;41173;52.634;-8.666;2024-01-16T20:51:51;99604.97;;;0.41;100.00
55311;BME280;41173;52.634;-8.666;2024-01-16T20:54:19;99609.28;;;0.40;100.00
55311;BME280;41173;52.634;-8.666;2024-01-16T20:56:44;99612.75;;;0.41;100.00
55311;BME280;41173;52.634;-8.666;2024-01-16T20:59:10;99613.81;;;0.47;100.00
55311;BME280;41173;52.634;-8.666;2024-01-16T21:01:36;99611.34;;;0.50;100.00
55311;BME280;41173;52.634;-8.666;2024-01-16T21:04:02;99608.88;;;0.55;100.00
55311;BME280;41173;52.634;-8.666;2024-01-16T21:06:28;99595.13;;;0.56;100.00
55311;BME280;41173;52.634;-8.666;2024-01-16T21:08:53;99601.28;;;0.60;100.00
55311;BME280;41173;52.634;-8.666;2024-01-16T21:11:19;99597.81;;;0.59;100.00
55311;BME280;41173;52.634;-8.666;2024-01-16T21:13:45;99586.72;;;0.63;100.00
55311;BME280;41173;52.634;-8.666;2024-01-16T21:16:11;99586.03;;;0.69;100.00
55311;BME280;41173;52.634;-8.666;2024-01-16T21:18:37;99575.81;;;0.73;100.00
55311;BME280;41173;52.634;-8.666;2024-01-16T21:21:07;99572.16;;;0.67;100.00
55311;BME280;41173;52.634;-8.666;2024-01-16T21:23:33;99571.28;;;0.66;100.00
55311;BME280;41173;52.634;-8.666;2024-01-16T21:25:58;99552.69;;;0.78;100.00
55311;BME280;41173;52.634;-8.666;2024-01-16T21:28:23;99554.19;;;0.71;100.00
55311;BME280;41173;52.634;-8.666;2024-01-16T21:30:49;99562.97;;;0.77;100.00
55311;BME280;41173;52.634;-8.666;2024-01-16T21:33:17;99558.47;;;0.71;100.00
55311;BME280;41173;52.634;-8.666;2024-01-16T21:35:42;99556.69;;;0.68;100.00
55311;BME280;41173;52.634;-8.666;2024-01-16T21:38:07;99551.66;;;0.73;100.00
55311;BME280;41173;52.634;-8.666;2024-01-16T21:40:34;99547.88;;;0.63;100.00
55311;BME280;41173;52.634;-8.666;2024-01-16T21:42:59;99541.97;;;0.67;100.00
55311;BME280;41173;52.634;-8.666;2024-01-16T21:45:25;99539.47;;;0.70;100.00
55311;BME280;41173;52.634;-8.666;2024-01-16T21:47:50;99530.69;;;0.65;100.00
55311;BME280;41173;52.634;-8.666;2024-01-16T21:50:16;99531.66;;;0.69;100.00
55311;BME280;41173;52.634;-8.666;2024-01-16T21:52:42;99534.19;;;0.66;100.00
55311;BME280;41173;52.634;-8.666;2024-01-16T21:55:07;99527.38;;;0.69;100.00
55311;BME280;41173;52.634;-8.666;2024-01-16T21:57:33;99529.16;;;0.72;100.00
55311;BME280;41173;52.634;-8.666;2024-01-16T21:59:59;99530.03;;;0.72;100.00
55311;BME280;41173;52.634;-8.666;2024-01-16T22:02:27;99521.56;;;0.77;100.00
55311;BME280;41173;52.634;-8.666;2024-01-16T22:04:52;99517.16;;;0.74;100.00
55311;BME280;41173;52.634;-8.666;2024-01-16T22:07:18;99502.63;;;0.79;100.00
55311;BME280;41173;52.634;-8.666;2024-01-16T22:09:44;99511.25;;;0.78;100.00
55311;BME280;41173;52.634;-8.666;2024-01-16T22:12:10;99514.84;;;0.83;100.00
55311;BME280;41173;52.634;-8.666;2024-01-16T22:14:35;99510.50;;;0.82;100.00
55311;BME280;41173;52.634;-8.666;2024-01-16T22:17:03;99515.78;;;0.85;100.00
55311;BME280;41173;52.634;-8.666;2024-01-16T22:19:28;99514.09;;;0.87;100.00
55311;BME280;41173;52.634;-8.666;2024-01-16T22:21:54;99506.47;;;0.92;100.00
55311;BME280;41173;52.634;-8.666;2024-01-16T22:24:20;99511.56;;;0.89;100.00
55311;BME280;41173;52.634;-8.666;2024-01-16T22:26:45;99502.06;;;0.89;100.00
55311;BME280;41173;52.634;-8.666;2024-01-16T22:29:11;99496.13;;;0.92;100.00
55311;BME280;41173;52.634;-8.666;2024-01-16T22:31:42;99492.88;;;0.99;100.00
55311;BME280;41173;52.634;-8.666;2024-01-16T22:34:09;99496.28;;;0.98;100.00
55311;BME280;41173;52.634;-8.666;2024-01-16T22:36:38;99497.09;;;0.96;100.00
55311;BME280;41173;52.634;-8.666;2024-01-16T22:39:04;99491.91;;;0.96;100.00
55311;BME280;41173;52.634;-8.666;2024-01-16T22:41:30;99495.25;;;0.93;100.00
55311;BME280;41173;52.634;-8.666;2024-01-16T22:43:59;99484.03;;;0.92;100.00
55311;BME280;41173;52.634;-8.666;2024-01-16T22:46:25;99485.16;;;1.01;100.00
55311;BME280;41173;52.634;-8.666;2024-01-16T22:48:51;99476.47;;;0.99;100.00
55311;BME280;41173;52.634;-8.666;2024-01-16T22:51:16;99472.00;;;0.94;100.00
55311;BME280;41173;52.634;-8.666;2024-01-16T22:53:41;99469.31;;;0.91;100.00
55311;BME280;41173;52.634;-8.666;2024-01-16T22:56:07;99471.75;;;0.85;100.00
55311;BME280;41173;52.634;-8.666;2024-01-16T22:58:34;99468.31;;;0.86;100.00
55311;BME280;41173;52.634;-8.666;2024-01-16T23:01:00;99469.31;;;0.91;100.00
55311;BME280;41173;52.634;-8.666;2024-01-16T23:03:26;99454.72;;;0.93;100.00
55311;BME280;41173;52.634;-8.666;2024-01-16T23:05:52;99453.72;;;0.88;100.00
55311;BME280;41173;52.634;-8.666;2024-01-16T23:08:18;99465.66;;;0.83;100.00
55311;BME280;41173;52.634;-8.666;2024-01-16T23:10:44;99458.44;;;0.73;100.00
55311;BME280;41173;52.634;-8.666;2024-01-16T23:13:10;99457.69;;;0.77;100.00
55311;BME280;41173;52.634;-8.666;2024-01-16T23:15:35;99451.75;;;0.80;100.00
55311;BME280;41173;52.634;-8.666;2024-01-16T23:18:01;99447.38;;;0.79;100.00
55311;BME280;41173;52.634;-8.666;2024-01-16T23:20:26;99445.56;;;0.76;100.00
55311;BME280;41173;52.634;-8.666;2024-01-16T23:22:54;99445.47;;;0.71;100.00
55311;BME280;41173;52.634;-8.666;2024-01-16T23:25:20;99438.47;;;0.69;100.00
55311;BME280;41173;52.634;-8.666;2024-01-16T23:27:45;99443.56;;;0.66;100.00
